New Eagle, Pennsylvania
Current Conditions -  °F | °C
As of 2:53 AM on Friday 19 Dec 2014 (Local Time) from KAGC Reporting Station
Haze Haze  
Wind Chill: 19°   Ceiling: 1100
Heat Index: 27°   Visibility: 6mi
Dew Point: 21°   Wind: 8mph
Humidity: 78%   Direction: 250°WSW
Pressure: 30.13"   Gusts: NA
Location:  40.21°N, 79.95°W
Report Text: KAGC 190753Z 25007KT 6SM HZ OVC011 M03/M06 A3013 RMK AO2 SLP224 T10281061
Loading
Personal Weather Stations






























Interactive Weather Map New forecast layout! Learn more

10-Day Weather Forecast

Advertisements
Track Severe Weather on mobile